sensor_id;sensor_type;location;lat;lon;timestamp;P1;durP1;ratioP1;P2;durP2;ratioP2
3543;SDS011;1786;52.870;9.578;2023-04-01T00:01:58;3.77;;;3.43;;
3543;SDS011;1786;52.870;9.578;2023-04-01T00:04:35;7.83;;;3.40;;
3543;SDS011;1786;52.870;9.578;2023-04-01T00:07:25;5.20;;;3.47;;
3543;SDS011;1786;52.870;9.578;2023-04-01T00:10:23;3.40;;;3.07;;
3543;SDS011;1786;52.870;9.578;2023-04-01T00:12:56;4.70;;;2.93;;
3543;SDS011;1786;52.870;9.578;2023-04-01T00:15:27;5.70;;;2.93;;
3543;SDS011;1786;52.870;9.578;2023-04-01T00:18:16;2.70;;;2.50;;
3543;SDS011;1786;52.870;9.578;2023-04-01T00:20:46;3.80;;;2.40;;
3543;SDS011;1786;52.870;9.578;2023-04-01T00:23:16;3.73;;;3.27;;
3543;SDS011;1786;52.870;9.578;2023-04-01T00:25:47;2.37;;;2.17;;
3543;SDS011;1786;52.870;9.578;2023-04-01T00:28:19;4.37;;;2.90;;
3543;SDS011;1786;52.870;9.578;2023-04-01T00:30:49;2.10;;;1.90;;
3543;SDS011;1786;52.870;9.578;2023-04-01T00:33:16;2.10;;;1.93;;
3543;SDS011;1786;52.870;9.578;2023-04-01T00:35:44;5.03;;;2.27;;
3543;SDS011;1786;52.870;9.578;2023-04-01T00:38:11;2.17;;;2.07;;
3543;SDS011;1786;52.870;9.578;2023-04-01T00:40:40;7.57;;;2.73;;
3543;SDS011;1786;52.870;9.578;2023-04-01T00:43:15;4.60;;;2.73;;
3543;SDS011;1786;52.870;9.578;2023-04-01T00:45:45;4.33;;;2.30;;
3543;SDS011;1786;52.870;9.578;2023-04-01T00:48:19;8.83;;;2.43;;
3543;SDS011;1786;52.870;9.578;2023-04-01T00:50:56;3.83;;;2.47;;
3543;SDS011;1786;52.870;9.578;2023-04-01T00:53:25;3.20;;;2.30;;
3543;SDS011;1786;52.870;9.578;2023-04-01T00:55:59;2.40;;;2.20;;
3543;SDS011;1786;52.870;9.578;2023-04-01T00:58:35;5.93;;;2.60;;
3543;SDS011;1786;52.870;9.578;2023-04-01T01:01:03;6.30;;;2.30;;
3543;SDS011;1786;52.870;9.578;2023-04-01T01:03:30;2.63;;;2.43;;
3543;SDS011;1786;52.870;9.578;2023-04-01T01:11:00;4.53;;;2.90;;
3543;SDS011;1786;52.870;9.578;2023-04-01T01:13:33;4.83;;;2.47;;
3543;SDS011;1786;52.870;9.578;2023-04-01T01:16:14;2.37;;;2.23;;
3543;SDS011;1786;52.870;9.578;2023-04-01T01:18:52;11.50;;;3.10;;
3543;SDS011;1786;52.870;9.578;2023-04-01T01:21:30;2.40;;;1.90;;
3543;SDS011;1786;52.870;9.578;2023-04-01T01:27:06;2.27;;;2.00;;
3543;SDS011;1786;52.870;9.578;2023-04-01T01:33:10;3.63;;;1.80;;
3543;SDS011;1786;52.870;9.578;2023-04-01T01:35:26;2.30;;;2.00;;
3543;SDS011;1786;52.870;9.578;2023-04-01T01:37:58;2.27;;;2.00;;
3543;SDS011;1786;52.870;9.578;2023-04-01T01:40:31;2.67;;;2.07;;
3543;SDS011;1786;52.870;9.578;2023-04-01T01:43:11;4.83;;;1.70;;
3543;SDS011;1786;52.870;9.578;2023-04-01T01:45:50;1.73;;;1.60;;
3543;SDS011;1786;52.870;9.578;2023-04-01T01:48:23;4.10;;;1.60;;
3543;SDS011;1786;52.870;9.578;2023-04-01T01:50:55;4.47;;;2.40;;
3543;SDS011;1786;52.870;9.578;2023-04-01T01:53:25;2.13;;;1.80;;
3543;SDS011;1786;52.870;9.578;2023-04-01T01:55:58;1.43;;;1.27;;
3543;SDS011;1786;52.870;9.578;2023-04-01T01:58:37;3.57;;;1.97;;
3543;SDS011;1786;52.870;9.578;2023-04-01T02:01:12;2.77;;;1.70;;
3543;SDS011;1786;52.870;9.578;2023-04-01T02:03:48;2.20;;;1.87;;
3543;SDS011;1786;52.870;9.578;2023-04-01T02:06:21;1.87;;;1.70;;
3543;SDS011;1786;52.870;9.578;2023-04-01T02:09:00;1.50;;;1.40;;
3543;SDS011;1786;52.870;9.578;2023-04-01T02:11:34;5.23;;;1.40;;
3543;SDS011;1786;52.870;9.578;2023-04-01T02:14:19;1.83;;;1.70;;
3543;SDS011;1786;52.870;9.578;2023-04-01T02:17:00;2.00;;;1.77;;
3543;SDS011;1786;52.870;9.578;2023-04-01T02:19:36;2.97;;;1.80;;
3543;SDS011;1786;52.870;9.578;2023-04-01T02:22:13;1.30;;;1.30;;
3543;SDS011;1786;52.870;9.578;2023-04-01T02:24:44;2.23;;;1.83;;
3543;SDS011;1786;52.870;9.578;2023-04-01T02:27:18;2.30;;;1.70;;
3543;SDS011;1786;52.870;9.578;2023-04-01T02:29:50;2.63;;;1.60;;
3543;SDS011;1786;52.870;9.578;2023-04-01T02:32:28;2.97;;;1.50;;
3543;SDS011;1786;52.870;9.578;2023-04-01T02:34:58;1.43;;;1.33;;
3543;SDS011;1786;52.870;9.578;2023-04-01T02:37:27;2.13;;;1.53;;
3543;SDS011;1786;52.870;9.578;2023-04-01T02:40:00;1.50;;;1.50;;
3543;SDS011;1786;52.870;9.578;2023-04-01T02:42:36;3.70;;;1.40;;
3543;SDS011;1786;52.870;9.578;2023-04-01T02:45:09;4.53;;;1.60;;
3543;SDS011;1786;52.870;9.578;2023-04-01T02:47:39;1.53;;;1.30;;
3543;SDS011;1786;52.870;9.578;2023-04-01T02:50:12;1.87;;;1.33;;
3543;SDS011;1786;52.870;9.578;2023-04-01T02:52:43;1.53;;;1.43;;
3543;SDS011;1786;52.870;9.578;2023-04-01T02:55:13;1.43;;;1.43;;
3543;SDS011;1786;52.870;9.578;2023-04-01T02:57:41;1.43;;;1.33;;
3543;SDS011;1786;52.870;9.578;2023-04-01T03:00:30;4.13;;;1.87;;
3543;SDS011;1786;52.870;9.578;2023-04-01T03:02:57;1.57;;;1.47;;
3543;SDS011;1786;52.870;9.578;2023-04-01T03:05:27;1.43;;;1.00;;
3543;SDS011;1786;52.870;9.578;2023-04-01T03:08:02;2.60;;;1.33;;
3543;SDS011;1786;52.870;9.578;2023-04-01T03:10:30;1.50;;;1.40;;
3543;SDS011;1786;52.870;9.578;2023-04-01T03:12:57;1.93;;;1.50;;
3543;SDS011;1786;52.870;9.578;2023-04-01T03:15:27;1.87;;;1.13;;
3543;SDS011;1786;52.870;9.578;2023-04-01T03:17:54;3.47;;;1.43;;
3543;SDS011;1786;52.870;9.578;2023-04-01T03:20:21;1.93;;;1.70;;
3543;SDS011;1786;52.870;9.578;2023-04-01T03:22:49;2.43;;;1.50;;
3543;SDS011;1786;52.870;9.578;2023-04-01T03:25:17;1.63;;;1.33;;
3543;SDS011;1786;52.870;9.578;2023-04-01T03:27:46;1.93;;;1.47;;
3543;SDS011;1786;52.870;9.578;2023-04-01T03:30:13;1.83;;;1.37;;
3543;SDS011;1786;52.870;9.578;2023-04-01T03:32:48;2.03;;;1.83;;
3543;SDS011;1786;52.870;9.578;2023-04-01T03:35:15;2.00;;;1.50;;
3543;SDS011;1786;52.870;9.578;2023-04-01T03:37:45;7.13;;;1.60;;
3543;SDS011;1786;52.870;9.578;2023-04-01T03:40:14;1.60;;;1.50;;
3543;SDS011;1786;52.870;9.578;2023-04-01T03:42:42;3.43;;;1.70;;
3543;SDS011;1786;52.870;9.578;2023-04-01T03:45:14;1.80;;;1.70;;
3543;SDS011;1786;52.870;9.578;2023-04-01T03:47:42;1.73;;;1.57;;
3543;SDS011;1786;52.870;9.578;2023-04-01T03:50:11;2.53;;;1.60;;
3543;SDS011;1786;52.870;9.578;2023-04-01T03:52:38;3.80;;;1.77;;
3543;SDS011;1786;52.870;9.578;2023-04-01T03:55:10;4.17;;;1.97;;
3543;SDS011;1786;52.870;9.578;2023-04-01T03:57:44;2.13;;;1.57;;
3543;SDS011;1786;52.870;9.578;2023-04-01T04:00:40;8.80;;;1.40;;
3543;SDS011;1786;52.870;9.578;2023-04-01T04:03:10;1.40;;;1.30;;
3543;SDS011;1786;52.870;9.578;2023-04-01T04:05:48;4.20;;;2.03;;
3543;SDS011;1786;52.870;9.578;2023-04-01T04:08:17;2.00;;;1.80;;
3543;SDS011;1786;52.870;9.578;2023-04-01T04:10:46;3.27;;;1.73;;
3543;SDS011;1786;52.870;9.578;2023-04-01T04:13:15;2.37;;;1.50;;
3543;SDS011;1786;52.870;9.578;2023-04-01T04:15:48;1.60;;;1.60;;
3543;SDS011;1786;52.870;9.578;2023-04-01T04:18:18;7.13;;;1.67;;
3543;SDS011;1786;52.870;9.578;2023-04-01T04:20:49;1.70;;;1.60;;
3543;SDS011;1786;52.870;9.578;2023-04-01T04:23:20;3.00;;;1.57;;
3543;SDS011;1786;52.870;9.578;2023-04-01T04:26:07;4.00;;;1.40;;
3543;SDS011;1786;52.870;9.578;2023-04-01T04:28:43;2.50;;;1.27;;
3543;SDS011;1786;52.870;9.578;2023-04-01T04:31:28;3.43;;;1.40;;
3543;SDS011;1786;52.870;9.578;2023-04-01T04:34:08;1.53;;;1.27;;
3543;SDS011;1786;52.870;9.578;2023-04-01T04:36:36;1.70;;;1.17;;
3543;SDS011;1786;52.870;9.578;2023-04-01T04:39:04;1.70;;;1.50;;
3543;SDS011;1786;52.870;9.578;2023-04-01T04:41:37;2.20;;;1.30;;
3543;SDS011;1786;52.870;9.578;2023-04-01T04:44:07;2.10;;;1.37;;
3543;SDS011;1786;52.870;9.578;2023-04-01T04:46:41;6.07;;;1.10;;
3543;SDS011;1786;52.870;9.578;2023-04-01T04:49:16;4.23;;;1.30;;
3543;SDS011;1786;52.870;9.578;2023-04-01T04:51:48;6.20;;;1.20;;
3543;SDS011;1786;52.870;9.578;2023-04-01T04:54:23;2.30;;;1.33;;
3543;SDS011;1786;52.870;9.578;2023-04-01T04:56:59;1.27;;;1.17;;
3543;SDS011;1786;52.870;9.578;2023-04-01T04:59:33;1.13;;;1.13;;
3543;SDS011;1786;52.870;9.578;2023-04-01T05:02:08;1.73;;;1.10;;
3543;SDS011;1786;52.870;9.578;2023-04-01T05:04:40;2.20;;;1.27;;
3543;SDS011;1786;52.870;9.578;2023-04-01T05:07:09;2.60;;;0.93;;
3543;SDS011;1786;52.870;9.578;2023-04-01T05:09:42;1.20;;;1.20;;
3543;SDS011;1786;52.870;9.578;2023-04-01T05:12:21;1.70;;;1.60;;
3543;SDS011;1786;52.870;9.578;2023-04-01T05:14:57;2.57;;;1.20;;
3543;SDS011;1786;52.870;9.578;2023-04-01T05:17:34;1.30;;;1.20;;
3543;SDS011;1786;52.870;9.578;2023-04-01T05:20:08;2.27;;;1.30;;
3543;SDS011;1786;52.870;9.578;2023-04-01T05:22:42;1.50;;;1.40;;
3543;SDS011;1786;52.870;9.578;2023-04-01T05:25:23;1.77;;;1.40;;
3543;SDS011;1786;52.870;9.578;2023-04-01T05:27:54;2.90;;;1.70;;
3543;SDS011;1786;52.870;9.578;2023-04-01T05:30:27;2.10;;;1.50;;
3543;SDS011;1786;52.870;9.578;2023-04-01T05:33:02;2.67;;;1.07;;
3543;SDS011;1786;52.870;9.578;2023-04-01T05:35:33;1.70;;;1.00;;
3543;SDS011;1786;52.870;9.578;2023-04-01T05:38:06;1.40;;;1.00;;
3543;SDS011;1786;52.870;9.578;2023-04-01T05:40:41;1.23;;;1.00;;
3543;SDS011;1786;52.870;9.578;2023-04-01T05:43:22;1.73;;;0.93;;
3543;SDS011;1786;52.870;9.578;2023-04-01T05:46:06;1.27;;;1.10;;
3543;SDS011;1786;52.870;9.578;2023-04-01T05:48:49;1.80;;;1.30;;
3543;SDS011;1786;52.870;9.578;2023-04-01T05:51:19;2.90;;;1.00;;
3543;SDS011;1786;52.870;9.578;2023-04-01T05:53:46;2.77;;;0.80;;
3543;SDS011;1786;52.870;9.578;2023-04-01T05:56:18;2.13;;;1.00;;
3543;SDS011;1786;52.870;9.578;2023-04-01T05:58:55;3.03;;;1.00;;
3543;SDS011;1786;52.870;9.578;2023-04-01T06:01:27;2.10;;;1.20;;
3543;SDS011;1786;52.870;9.578;2023-04-01T06:03:54;2.60;;;0.83;;
3543;SDS011;1786;52.870;9.578;2023-04-01T06:06:28;5.27;;;1.27;;
3543;SDS011;1786;52.870;9.578;2023-04-01T06:09:10;2.70;;;1.50;;
3543;SDS011;1786;52.870;9.578;2023-04-01T06:11:44;2.50;;;1.20;;
3543;SDS011;1786;52.870;9.578;2023-04-01T06:14:22;1.80;;;1.20;;
3543;SDS011;1786;52.870;9.578;2023-04-01T06:19:36;1.23;;;0.87;;
3543;SDS011;1786;52.870;9.578;2023-04-01T06:22:10;2.20;;;1.70;;
3543;SDS011;1786;52.870;9.578;2023-04-01T06:24:49;1.27;;;1.10;;
3543;SDS011;1786;52.870;9.578;2023-04-01T06:29:49;3.00;;;1.20;;
3543;SDS011;1786;52.870;9.578;2023-04-01T06:40:55;1.40;;;1.17;;
3543;SDS011;1786;52.870;9.578;2023-04-01T06:45:54;2.83;;;1.47;;
3543;SDS011;1786;52.870;9.578;2023-04-01T06:54:40;2.40;;;1.40;;
3543;SDS011;1786;52.870;9.578;2023-04-01T06:57:38;1.10;;;1.10;;
3543;SDS011;1786;52.870;9.578;2023-04-01T07:05:57;2.93;;;1.10;;
3543;SDS011;1786;52.870;9.578;2023-04-01T07:08:25;1.50;;;0.93;;
3543;SDS011;1786;52.870;9.578;2023-04-01T07:11:03;1.00;;;1.00;;
3543;SDS011;1786;52.870;9.578;2023-04-01T07:13:54;1.77;;;1.10;;
3543;SDS011;1786;52.870;9.578;2023-04-01T07:16:32;2.67;;;1.10;;
3543;SDS011;1786;52.870;9.578;2023-04-01T07:19:03;0.80;;;0.80;;
3543;SDS011;1786;52.870;9.578;2023-04-01T07:22:00;1.80;;;1.20;;
3543;SDS011;1786;52.870;9.578;2023-04-01T07:24:41;2.17;;;1.97;;
3543;SDS011;1786;52.870;9.578;2023-04-01T07:27:11;1.00;;;0.90;;
3543;SDS011;1786;52.870;9.578;2023-04-01T07:29:39;2.43;;;1.23;;
3543;SDS011;1786;52.870;9.578;2023-04-01T07:37:37;2.40;;;1.23;;
3543;SDS011;1786;52.870;9.578;2023-04-01T07:45:39;1.17;;;0.90;;
3543;SDS011;1786;52.870;9.578;2023-04-01T07:50:41;0.90;;;0.90;;
3543;SDS011;1786;52.870;9.578;2023-04-01T07:53:30;1.27;;;1.17;;
3543;SDS011;1786;52.870;9.578;2023-04-01T07:56:10;1.00;;;0.90;;
3543;SDS011;1786;52.870;9.578;2023-04-01T07:58:44;1.10;;;1.00;;
3543;SDS011;1786;52.870;9.578;2023-04-01T08:09:21;1.00;;;0.90;;
3543;SDS011;1786;52.870;9.578;2023-04-01T08:23:33;1.20;;;1.10;;
3543;SDS011;1786;52.870;9.578;2023-04-01T08:26:14;2.00;;;1.30;;
3543;SDS011;1786;52.870;9.578;2023-04-01T08:28:46;1.20;;;1.10;;
3543;SDS011;1786;52.870;9.578;2023-04-01T08:31:30;2.20;;;1.43;;
3543;SDS011;1786;52.870;9.578;2023-04-01T08:33:59;2.60;;;1.50;;
3543;SDS011;1786;52.870;9.578;2023-04-01T08:36:28;1.30;;;1.00;;
3543;SDS011;1786;52.870;9.578;2023-04-01T08:39:16;2.30;;;1.30;;
3543;SDS011;1786;52.870;9.578;2023-04-01T08:41:53;2.23;;;2.10;;
3543;SDS011;1786;52.870;9.578;2023-04-01T08:47:05;2.47;;;1.90;;
3543;SDS011;1786;52.870;9.578;2023-04-01T08:58:32;2.40;;;2.00;;
3543;SDS011;1786;52.870;9.578;2023-04-01T09:01:14;1.23;;;1.17;;
3543;SDS011;1786;52.870;9.578;2023-04-01T09:06:55;1.10;;;1.00;;
3543;SDS011;1786;52.870;9.578;2023-04-01T09:09:52;3.10;;;1.80;;
3543;SDS011;1786;52.870;9.578;2023-04-01T09:22:50;3.03;;;1.80;;
3543;SDS011;1786;52.870;9.578;2023-04-01T09:25:35;5.03;;;1.40;;
3543;SDS011;1786;52.870;9.578;2023-04-01T09:28:13;1.17;;;1.10;;
3543;SDS011;1786;52.870;9.578;2023-04-01T09:35:48;2.40;;;1.47;;
3543;SDS011;1786;52.870;9.578;2023-04-01T09:38:20;2.70;;;1.73;;
3543;SDS011;1786;52.870;9.578;2023-04-01T09:51:09;2.10;;;1.13;;
3543;SDS011;1786;52.870;9.578;2023-04-01T09:53:50;1.57;;;0.97;;
3543;SDS011;1786;52.870;9.578;2023-04-01T09:56:27;0.83;;;0.83;;
3543;SDS011;1786;52.870;9.578;2023-04-01T09:59:03;2.10;;;0.90;;
3543;SDS011;1786;52.870;9.578;2023-04-01T10:12:44;3.30;;;1.00;;
3543;SDS011;1786;52.870;9.578;2023-04-01T10:15:26;1.10;;;1.10;;
3543;SDS011;1786;52.870;9.578;2023-04-01T10:18:17;1.93;;;1.50;;
3543;SDS011;1786;52.870;9.578;2023-04-01T10:23:50;1.50;;;1.13;;
3543;SDS011;1786;52.870;9.578;2023-04-01T10:35:21;1.03;;;1.03;;
3543;SDS011;1786;52.870;9.578;2023-04-01T10:40:38;4.77;;;1.90;;
3543;SDS011;1786;52.870;9.578;2023-04-01T10:55:00;0.87;;;0.87;;
3543;SDS011;1786;52.870;9.578;2023-04-01T10:58:18;7.70;;;1.30;;
3543;SDS011;1786;52.870;9.578;2023-04-01T11:01:39;3.90;;;1.43;;
3543;SDS011;1786;52.870;9.578;2023-04-01T11:08:48;0.60;;;0.60;;
3543;SDS011;1786;52.870;9.578;2023-04-01T11:22:07;0.80;;;0.80;;
3543;SDS011;1786;52.870;9.578;2023-04-01T11:25:15;0.50;;;0.50;;
3543;SDS011;1786;52.870;9.578;2023-04-01T11:41:32;1.23;;;0.90;;
3543;SDS011;1786;52.870;9.578;2023-04-01T11:45:12;3.70;;;2.57;;
3543;SDS011;1786;52.870;9.578;2023-04-01T11:47:52;1.50;;;1.50;;
3543;SDS011;1786;52.870;9.578;2023-04-01T11:50:33;2.63;;;1.50;;
3543;SDS011;1786;52.870;9.578;2023-04-01T11:58:10;5.60;;;3.90;;
3543;SDS011;1786;52.870;9.578;2023-04-01T12:00:52;6.50;;;4.00;;
3543;SDS011;1786;52.870;9.578;2023-04-01T12:11:12;5.10;;;0.70;;
3543;SDS011;1786;52.870;9.578;2023-04-01T12:13:45;2.20;;;2.00;;
3543;SDS011;1786;52.870;9.578;2023-04-01T12:17:02;4.13;;;3.40;;
3543;SDS011;1786;52.870;9.578;2023-04-01T12:19:13;1.20;;;0.80;;
3543;SDS011;1786;52.870;9.578;2023-04-01T12:21:44;0.50;;;0.50;;
3543;SDS011;1786;52.870;9.578;2023-04-01T12:34:57;1.80;;;0.60;;
3543;SDS011;1786;52.870;9.578;2023-04-01T12:51:04;0.70;;;0.60;;
3543;SDS011;1786;52.870;9.578;2023-04-01T12:56:02;0.53;;;0.53;;
3543;SDS011;1786;52.870;9.578;2023-04-01T13:04:01;0.60;;;0.60;;
3543;SDS011;1786;52.870;9.578;2023-04-01T13:07:07;0.60;;;0.60;;
3543;SDS011;1786;52.870;9.578;2023-04-01T13:09:42;0.60;;;0.60;;
3543;SDS011;1786;52.870;9.578;2023-04-01T13:12:29;0.87;;;0.60;;
3543;SDS011;1786;52.870;9.578;2023-04-01T13:15:05;0.60;;;0.60;;
3543;SDS011;1786;52.870;9.578;2023-04-01T13:17:40;0.60;;;0.60;;
3543;SDS011;1786;52.870;9.578;2023-04-01T13:20:16;0.60;;;0.60;;
3543;SDS011;1786;52.870;9.578;2023-04-01T13:28:10;0.60;;;0.60;;
3543;SDS011;1786;52.870;9.578;2023-04-01T13:30:59;0.57;;;0.57;;
3543;SDS011;1786;52.870;9.578;2023-04-01T13:33:47;0.60;;;0.60;;
3543;SDS011;1786;52.870;9.578;2023-04-01T13:41:38;1.73;;;0.60;;
3543;SDS011;1786;52.870;9.578;2023-04-01T13:58:35;0.50;;;0.50;;
3543;SDS011;1786;52.870;9.578;2023-04-01T14:03:26;0.63;;;0.57;;
3543;SDS011;1786;52.870;9.578;2023-04-01T14:11:15;0.50;;;0.50;;
3543;SDS011;1786;52.870;9.578;2023-04-01T14:13:50;0.60;;;0.60;;
3543;SDS011;1786;52.870;9.578;2023-04-01T14:18:54;0.50;;;0.50;;
3543;SDS011;1786;52.870;9.578;2023-04-01T14:24:17;0.50;;;0.50;;
3543;SDS011;1786;52.870;9.578;2023-04-01T14:27:21;0.60;;;0.60;;
3543;SDS011;1786;52.870;9.578;2023-04-01T14:29:59;0.70;;;0.70;;
3543;SDS011;1786;52.870;9.578;2023-04-01T14:32:54;0.60;;;0.60;;
3543;SDS011;1786;52.870;9.578;2023-04-01T14:35:25;0.60;;;0.60;;
3543;SDS011;1786;52.870;9.578;2023-04-01T14:38:00;0.70;;;0.70;;
3543;SDS011;1786;52.870;9.578;2023-04-01T14:43:42;0.97;;;0.97;;
3543;SDS011;1786;52.870;9.578;2023-04-01T14:48:59;1.90;;;0.60;;
3543;SDS011;1786;52.870;9.578;2023-04-01T14:51:29;0.60;;;0.60;;
3543;SDS011;1786;52.870;9.578;2023-04-01T14:54:00;1.37;;;0.60;;
3543;SDS011;1786;52.870;9.578;2023-04-01T14:59:08;0.70;;;0.70;;
3543;SDS011;1786;52.870;9.578;2023-04-01T15:01:45;1.50;;;0.70;;
3543;SDS011;1786;52.870;9.578;2023-04-01T15:04:20;0.90;;;0.90;;
3543;SDS011;1786;52.870;9.578;2023-04-01T15:12:16;0.73;;;0.73;;
3543;SDS011;1786;52.870;9.578;2023-04-01T15:15:03;0.70;;;0.70;;
3543;SDS011;1786;52.870;9.578;2023-04-01T15:30:33;0.70;;;0.70;;
3543;SDS011;1786;52.870;9.578;2023-04-01T15:33:13;0.93;;;0.93;;
3543;SDS011;1786;52.870;9.578;2023-04-01T15:35:52;1.27;;;1.20;;
3543;SDS011;1786;52.870;9.578;2023-04-01T15:43:41;0.70;;;0.70;;
3543;SDS011;1786;52.870;9.578;2023-04-01T15:46:14;0.93;;;0.93;;
3543;SDS011;1786;52.870;9.578;2023-04-01T15:48:51;1.13;;;0.93;;
3543;SDS011;1786;52.870;9.578;2023-04-01T15:51:28;2.90;;;1.80;;
3543;SDS011;1786;52.870;9.578;2023-04-01T15:56:45;2.20;;;0.90;;
3543;SDS011;1786;52.870;9.578;2023-04-01T16:07:29;0.70;;;0.70;;
3543;SDS011;1786;52.870;9.578;2023-04-01T16:18:09;0.80;;;0.80;;
3543;SDS011;1786;52.870;9.578;2023-04-01T16:23:20;1.10;;;1.10;;
3543;SDS011;1786;52.870;9.578;2023-04-01T16:26:09;1.10;;;0.90;;
3543;SDS011;1786;52.870;9.578;2023-04-01T16:31:12;1.27;;;0.80;;
3543;SDS011;1786;52.870;9.578;2023-04-01T16:38:43;0.97;;;0.97;;
3543;SDS011;1786;52.870;9.578;2023-04-01T16:41:16;2.20;;;0.90;;
3543;SDS011;1786;52.870;9.578;2023-04-01T16:43:46;1.07;;;0.97;;
3543;SDS011;1786;52.870;9.578;2023-04-01T16:56:50;1.07;;;1.07;;
3543;SDS011;1786;52.870;9.578;2023-04-01T16:59:34;2.40;;;1.33;;
3543;SDS011;1786;52.870;9.578;2023-04-01T17:07:01;1.10;;;0.83;;
3543;SDS011;1786;52.870;9.578;2023-04-01T17:09:38;1.13;;;0.90;;
3543;SDS011;1786;52.870;9.578;2023-04-01T17:12:09;0.90;;;0.90;;
3543;SDS011;1786;52.870;9.578;2023-04-01T17:27:48;1.10;;;1.07;;
3543;SDS011;1786;52.870;9.578;2023-04-01T17:35:32;1.20;;;1.10;;
3543;SDS011;1786;52.870;9.578;2023-04-01T17:38:03;1.40;;;1.40;;
3543;SDS011;1786;52.870;9.578;2023-04-01T17:43:10;1.43;;;1.43;;
3543;SDS011;1786;52.870;9.578;2023-04-01T17:48:41;1.30;;;1.30;;
3543;SDS011;1786;52.870;9.578;2023-04-01T17:51:15;2.30;;;1.20;;
3543;SDS011;1786;52.870;9.578;2023-04-01T17:53:47;1.43;;;1.40;;
3543;SDS011;1786;52.870;9.578;2023-04-01T17:56:18;3.43;;;1.70;;
3543;SDS011;1786;52.870;9.578;2023-04-01T18:06:34;3.10;;;1.80;;
3543;SDS011;1786;52.870;9.578;2023-04-01T18:09:08;3.10;;;1.90;;
3543;SDS011;1786;52.870;9.578;2023-04-01T18:14:15;2.27;;;2.17;;
3543;SDS011;1786;52.870;9.578;2023-04-01T18:19:26;2.60;;;2.10;;
3543;SDS011;1786;52.870;9.578;2023-04-01T18:21:55;3.30;;;2.10;;
3543;SDS011;1786;52.870;9.578;2023-04-01T18:24:30;2.00;;;1.73;;
3543;SDS011;1786;52.870;9.578;2023-04-01T18:27:04;2.10;;;1.90;;
3543;SDS011;1786;52.870;9.578;2023-04-01T18:29:50;4.90;;;2.20;;
3543;SDS011;1786;52.870;9.578;2023-04-01T18:37:37;2.23;;;2.13;;
3543;SDS011;1786;52.870;9.578;2023-04-01T18:40:22;2.70;;;2.00;;
3543;SDS011;1786;52.870;9.578;2023-04-01T18:43:12;2.13;;;2.03;;
3543;SDS011;1786;52.870;9.578;2023-04-01T18:45:50;1.80;;;1.73;;
3543;SDS011;1786;52.870;9.578;2023-04-01T18:50:55;2.03;;;1.93;;
3543;SDS011;1786;52.870;9.578;2023-04-01T18:53:27;2.27;;;2.17;;
3543;SDS011;1786;52.870;9.578;2023-04-01T18:55:57;3.17;;;1.97;;
3543;SDS011;1786;52.870;9.578;2023-04-01T19:01:04;4.60;;;1.87;;
3543;SDS011;1786;52.870;9.578;2023-04-01T19:03:38;2.63;;;2.30;;
3543;SDS011;1786;52.870;9.578;2023-04-01T19:06:15;3.23;;;3.00;;
3543;SDS011;1786;52.870;9.578;2023-04-01T19:08:43;2.37;;;2.20;;
3543;SDS011;1786;52.870;9.578;2023-04-01T19:11:28;3.37;;;3.03;;
3543;SDS011;1786;52.870;9.578;2023-04-01T19:14:24;1.80;;;1.70;;
3543;SDS011;1786;52.870;9.578;2023-04-01T19:19:42;3.03;;;2.13;;
3543;SDS011;1786;52.870;9.578;2023-04-01T19:27:44;2.53;;;2.37;;
3543;SDS011;1786;52.870;9.578;2023-04-01T19:38:28;2.53;;;2.33;;
3543;SDS011;1786;52.870;9.578;2023-04-01T19:41:02;2.37;;;2.27;;
3543;SDS011;1786;52.870;9.578;2023-04-01T19:46:14;2.50;;;2.33;;
3543;SDS011;1786;52.870;9.578;2023-04-01T19:51:50;5.80;;;2.97;;
3543;SDS011;1786;52.870;9.578;2023-04-01T19:59:57;8.90;;;2.57;;
3543;SDS011;1786;52.870;9.578;2023-04-01T20:02:50;6.23;;;2.87;;
3543;SDS011;1786;52.870;9.578;2023-04-01T20:05:23;3.97;;;3.37;;
3543;SDS011;1786;52.870;9.578;2023-04-01T20:07:53;3.20;;;2.87;;
3543;SDS011;1786;52.870;9.578;2023-04-01T20:10:29;4.17;;;3.47;;
3543;SDS011;1786;52.870;9.578;2023-04-01T20:13:02;3.33;;;3.10;;
3543;SDS011;1786;52.870;9.578;2023-04-01T20:15:36;9.90;;;3.70;;
3543;SDS011;1786;52.870;9.578;2023-04-01T20:18:26;3.97;;;3.70;;
3543;SDS011;1786;52.870;9.578;2023-04-01T20:20:53;3.53;;;3.33;;
3543;SDS011;1786;52.870;9.578;2023-04-01T20:23:24;4.60;;;3.73;;
3543;SDS011;1786;52.870;9.578;2023-04-01T20:25:53;3.30;;;3.10;;
3543;SDS011;1786;52.870;9.578;2023-04-01T20:28:28;5.43;;;4.07;;
3543;SDS011;1786;52.870;9.578;2023-04-01T20:41:53;5.00;;;4.37;;
3543;SDS011;1786;52.870;9.578;2023-04-01T20:49:54;6.87;;;3.57;;
3543;SDS011;1786;52.870;9.578;2023-04-01T20:52:29;6.87;;;4.23;;
3543;SDS011;1786;52.870;9.578;2023-04-01T20:55:21;8.00;;;3.30;;
3543;SDS011;1786;52.870;9.578;2023-04-01T20:57:51;5.07;;;3.47;;
3543;SDS011;1786;52.870;9.578;2023-04-01T21:03:19;4.30;;;3.90;;
3543;SDS011;1786;52.870;9.578;2023-04-01T21:06:04;4.73;;;3.50;;
3543;SDS011;1786;52.870;9.578;2023-04-01T21:08:45;3.03;;;2.80;;
3543;SDS011;1786;52.870;9.578;2023-04-01T21:19:12;5.43;;;3.67;;
3543;SDS011;1786;52.870;9.578;2023-04-01T21:26:40;4.80;;;2.87;;
3543;SDS011;1786;52.870;9.578;2023-04-01T21:32:04;3.20;;;3.00;;
3543;SDS011;1786;52.870;9.578;2023-04-01T21:37:22;3.50;;;3.20;;
3543;SDS011;1786;52.870;9.578;2023-04-01T21:42:28;6.90;;;3.70;;
3543;SDS011;1786;52.870;9.578;2023-04-01T21:50:32;3.17;;;2.87;;
3543;SDS011;1786;52.870;9.578;2023-04-01T21:53:10;5.93;;;3.33;;
3543;SDS011;1786;52.870;9.578;2023-04-01T22:01:14;6.33;;;2.87;;
3543;SDS011;1786;52.870;9.578;2023-04-01T22:06:18;2.60;;;2.47;;
3543;SDS011;1786;52.870;9.578;2023-04-01T22:08:47;4.10;;;2.63;;
3543;SDS011;1786;52.870;9.578;2023-04-01T22:14:05;2.30;;;2.07;;
3543;SDS011;1786;52.870;9.578;2023-04-01T22:19:05;8.73;;;3.27;;
3543;SDS011;1786;52.870;9.578;2023-04-01T22:21:51;4.53;;;2.60;;
3543;SDS011;1786;52.870;9.578;2023-04-01T22:24:29;2.63;;;2.00;;
3543;SDS011;1786;52.870;9.578;2023-04-01T22:29:49;3.30;;;2.00;;
3543;SDS011;1786;52.870;9.578;2023-04-01T22:32:20;9.30;;;2.13;;
3543;SDS011;1786;52.870;9.578;2023-04-01T22:45:03;1.93;;;1.43;;
3543;SDS011;1786;52.870;9.578;2023-04-01T22:50:19;1.77;;;1.67;;
3543;SDS011;1786;52.870;9.578;2023-04-01T22:52:49;2.17;;;1.40;;
3543;SDS011;1786;52.870;9.578;2023-04-01T22:55:17;2.57;;;1.80;;
3543;SDS011;1786;52.870;9.578;2023-04-01T22:57:57;4.10;;;1.90;;
3543;SDS011;1786;52.870;9.578;2023-04-01T23:00:26;2.77;;;1.70;;
3543;SDS011;1786;52.870;9.578;2023-04-01T23:05:27;3.23;;;1.87;;
3543;SDS011;1786;52.870;9.578;2023-04-01T23:10:41;5.50;;;1.33;;
3543;SDS011;1786;52.870;9.578;2023-04-01T23:13:15;3.00;;;1.30;;
3543;SDS011;1786;52.870;9.578;2023-04-01T23:15:43;5.10;;;1.47;;
3543;SDS011;1786;52.870;9.578;2023-04-01T23:18:12;1.90;;;1.23;;
3543;SDS011;1786;52.870;9.578;2023-04-01T23:20:49;5.43;;;1.33;;
3543;SDS011;1786;52.870;9.578;2023-04-01T23:28:35;3.07;;;1.20;;
3543;SDS011;1786;52.870;9.578;2023-04-01T23:33:55;4.13;;;1.77;;
3543;SDS011;1786;52.870;9.578;2023-04-01T23:36:22;1.47;;;1.40;;
3543;SDS011;1786;52.870;9.578;2023-04-01T23:38:50;5.30;;;1.53;;
3543;SDS011;1786;52.870;9.578;2023-04-01T23:41:19;4.17;;;1.43;;
3543;SDS011;1786;52.870;9.578;2023-04-01T23:43:49;1.50;;;0.97;;
3543;SDS011;1786;52.870;9.578;2023-04-01T23:46:17;5.37;;;1.30;;
3543;SDS011;1786;52.870;9.578;2023-04-01T23:48:45;3.13;;;1.33;;
3543;SDS011;1786;52.870;9.578;2023-04-01T23:53:45;5.70;;;1.50;;
3543;SDS011;1786;52.870;9.578;2023-04-01T23:56:12;1.63;;;1.33;;
3543;SDS011;1786;52.870;9.578;2023-04-01T23:58:47;1.93;;;1.17;;
